Time;durP1;ratioP1;P1;durP2;ratioP2;P2;SDS_P1;SDS_P2;PMS_P1;PMS_P2;Temp;Humidity;BMP_temperature;BMP_pressure;BME280_temperature;BME280_humidity;BME280_pressure;Samples;Min_cycle;Max_cycle;Signal;HPM_P1;HPM_P2
2023/05/28 00:00:36;;;;;;;11.40;2.28;;;;;;;13.32;43.53;101665.09;2078821;28;20030;-70
2023/05/28 00:01:40;;;;;;;13.27;1.83;;;;;;;13.35;43.43;101676.19;2064334;28;20031;-70
2023/05/28 00:02:45;;;;;;;14.45;1.90;;;;;;;13.30;43.27;101651.84;2053903;28;20930;-69
2023/05/28 00:03:49;;;;;;;11.98;1.80;;;;;;;13.35;42.92;101659.97;2064827;28;20793;-69
2023/05/28 00:04:53;;;;;;;11.90;1.50;;;;;;;13.32;42.89;101665.09;2071201;28;20152;-69
2023/05/28 00:05:58;;;;;;;7.82;1.63;;;;;;;13.23;42.61;101657.50;2062563;28;20090;-69
2023/05/28 00:06:59;;;;;;;10.20;1.70;;;;;;;13.29;43.11;101660.25;2068825;28;20170;-69
2023/05/28 00:08:02;;;;;;;11.77;1.70;;;;;;;13.30;42.78;101659.97;2074076;28;20045;-69
2023/05/28 00:09:03;;;;;;;5.93;1.85;;;;;;;13.27;42.45;101662.41;2072710;28;20885;-70
2023/05/28 00:10:07;;;;;;;8.25;1.75;;;;;;;13.27;42.77;101651.59;2064251;28;20154;-71
2023/05/28 00:11:10;;;;;;;7.65;1.40;;;;;;;13.30;42.93;101669.97;2056918;28;20035;-69
2023/05/28 00:12:12;;;;;;;3.55;1.42;;;;;;;13.25;42.41;101664.56;2064067;28;20870;-69
2023/05/28 00:13:17;;;;;;;8.80;1.42;;;;;;;13.26;42.68;101671.59;2071979;28;20878;-69
2023/05/28 00:14:18;;;;;;;14.65;1.65;;;;;;;13.20;42.32;101668.84;2056053;28;20121;-70
2023/05/28 00:15:21;;;;;;;7.20;1.45;;;;;;;13.23;42.62;101657.50;2063799;28;20974;-70
2023/05/28 00:16:23;;;;;;;12.88;1.90;;;;;;;13.24;42.54;101661.03;2080579;28;20032;-70
2023/05/28 00:17:25;;;;;;;6.95;1.60;;;;;;;13.25;42.51;101659.19;2063804;28;20885;-70
2023/05/28 00:18:28;;;;;;;6.00;1.73;;;;;;;13.24;42.57;101652.94;2056324;28;20154;-70
2023/05/28 00:19:30;;;;;;;12.32;2.13;;;;;;;13.28;42.34;101669.44;2076953;28;20026;-69
2023/05/28 00:20:33;;;;;;;9.88;1.55;;;;;;;13.25;42.09;101664.56;2064139;28;20077;-70
2023/05/28 00:21:36;;;;;;;7.57;1.45;;;;;;;13.25;42.08;101659.19;2065543;28;20039;-70
2023/05/28 00:22:41;;;;;;;9.15;1.90;;;;;;;13.23;42.01;101657.50;2064606;28;20058;-70
2023/05/28 00:23:43;;;;;;;5.25;1.55;;;;;;;13.23;42.15;101657.50;2050004;28;20040;-69
2023/05/28 00:24:46;;;;;;;11.30;1.80;;;;;;;13.27;42.28;101663.19;2064831;28;20055;-70
2023/05/28 00:25:51;;;;;;;5.63;1.65;;;;;;;13.21;41.75;101651.56;2064638;28;20034;-70
2023/05/28 00:26:53;;;;;;;13.43;1.75;;;;;;;13.17;41.49;101652.38;2062157;28;20034;-69
2023/05/28 00:27:57;;;;;;;12.85;3.15;;;;;;;13.15;41.55;101655.34;2063618;28;20043;-69
2023/05/28 00:28:58;;;;;;;15.07;1.85;;;;;;;13.13;41.61;101646.69;2056667;28;20126;-70
2023/05/28 00:30:00;;;;;;;9.55;1.70;;;;;;;13.12;41.70;101650.50;2064617;28;20117;-70
2023/05/28 00:31:02;;;;;;;4.88;1.60;;;;;;;13.14;41.65;101644.81;2056975;28;20039;-70
2023/05/28 00:32:07;;;;;;;10.05;1.98;;;;;;;13.13;41.47;101646.69;2064724;28;20043;-69
2023/05/28 00:33:11;;;;;;;8.55;1.83;;;;;;;13.12;41.48;101650.50;2070202;28;20121;-70
2023/05/28 00:34:13;;;;;;;9.65;1.80;;;;;;;13.11;41.45;101648.03;2064608;28;20039;-70
2023/05/28 00:35:16;;;;;;;10.70;1.63;;;;;;;13.11;41.57;101651.53;2057172;28;20154;-69
2023/05/28 00:36:18;;;;;;;11.65;1.73;;;;;;;13.09;41.29;101656.44;2056709;28;20751;-69
2023/05/28 00:37:20;;;;;;;8.45;2.30;;;;;;;13.11;41.51;101648.84;2056848;28;20074;-69
2023/05/28 00:38:26;;;;;;;7.55;1.60;;;;;;;13.11;41.46;101643.44;2048471;28;20023;-69
2023/05/28 00:39:29;;;;;;;7.35;1.63;;;;;;;13.12;41.37;101650.50;2054891;28;20090;-69
2023/05/28 00:40:31;;;;;;;6.70;1.63;;;;;;;13.10;41.54;101649.94;2064463;28;20547;-68
2023/05/28 00:41:35;;;;;;;7.32;1.67;;;;;;;13.12;41.61;101650.50;2056615;28;20055;-68
2023/05/28 00:42:42;;;;;;;6.47;1.13;;;;;;;13.12;41.18;101650.50;2058136;28;20027;-69
2023/05/28 00:43:44;;;;;;;7.32;1.40;;;;;;;13.16;41.12;101648.88;2080348;28;20038;-68
2023/05/28 00:44:48;;;;;;;5.30;1.50;;;;;;;13.18;41.31;101649.41;2072861;28;20037;-68
2023/05/28 00:45:52;;;;;;;7.95;1.27;;;;;;;13.10;40.81;101649.94;2064549;28;20042;-69
2023/05/28 00:46:54;;;;;;;6.32;1.40;;;;;;;13.09;40.74;101648.31;2049037;28;20039;-69
2023/05/28 00:47:56;;;;;;;4.95;1.30;;;;;;;13.10;40.69;101641.84;2049323;28;20035;-70
2023/05/28 00:48:59;;;;;;;6.10;1.50;;;;;;;13.13;40.91;101646.69;2056295;28;20054;-70
2023/05/28 00:50:00;;;;;;;5.70;1.52;;;;;;;13.11;40.72;101645.34;2064933;28;20042;-70
2023/05/28 00:51:04;;;;;;;4.47;1.38;;;;;;;13.08;40.92;101643.19;2064742;28;20050;-70
2023/05/28 00:52:09;;;;;;;8.23;1.52;;;;;;;13.10;40.86;101647.22;2065614;28;20042;-70
2023/05/28 00:53:13;;;;;;;3.90;1.30;;;;;;;13.09;40.85;101644.81;2069698;28;20980;-70
2023/05/28 00:54:16;;;;;;;5.45;1.30;;;;;;;13.08;40.88;101643.19;2048815;28;20050;-69
2023/05/28 00:55:18;;;;;;;3.33;1.15;;;;;;;13.07;40.69;101641.56;2065399;28;20185;-70
2023/05/28 00:56:24;;;;;;;5.88;1.40;;;;;;;13.06;40.75;101629.97;2061664;28;20042;-69
2023/05/28 00:57:26;;;;;;;6.07;1.35;;;;;;;13.09;40.89;101639.41;2061043;28;20070;-68
2023/05/28 00:58:28;;;;;;;2.75;1.05;;;;;;;13.08;40.66;101635.91;2064478;28;20805;-68
2023/05/28 00:59:30;;;;;;;6.38;1.30;;;;;;;13.05;40.49;101638.31;2054395;28;20039;-68
2023/05/28 01:00:34;;;;;;;9.23;1.65;;;;;;;13.01;40.82;101632.66;2056559;28;20877;-68
2023/05/28 01:01:37;;;;;;;6.20;1.40;;;;;;;13.06;40.76;101629.97;2064811;28;20074;-68
2023/05/28 01:02:39;;;;;;;6.50;1.23;;;;;;;13.08;40.59;101633.22;2064767;28;20214;-68
2023/05/28 01:03:42;;;;;;;3.25;1.13;;;;;;;13.09;40.48;101642.91;2069027;28;20952;-67
2023/05/28 01:04:44;;;;;;;4.65;1.00;;;;;;;13.06;40.49;101629.97;2067712;28;20018;-68
2023/05/28 01:05:47;;;;;;;2.53;1.00;;;;;;;13.06;40.46;101631.84;2056792;28;20846;-68
2023/05/28 01:06:49;;;;;;;5.18;1.50;;;;;;;13.05;40.70;101639.16;2064851;28;20034;-68
2023/05/28 01:07:51;;;;;;;7.60;1.48;;;;;;;13.00;40.40;101625.63;2065027;28;20041;-68
2023/05/28 01:08:53;;;;;;;2.17;0.90;;;;;;;13.03;40.34;101629.69;2080771;28;20137;-68
2023/05/28 01:09:58;;;;;;;6.07;1.27;;;;;;;13.03;40.54;101632.38;2062412;28;20146;-68
2023/05/28 01:11:07;;;;;;;3.65;1.60;;;;;;;12.98;40.38;101628.59;2045868;28;20159;-68
2023/05/28 01:12:12;;;;;;;6.45;1.23;;;;;;;12.98;40.51;101633.19;2066953;28;20871;-68
2023/05/28 01:13:14;;;;;;;6.10;0.80;;;;;;;13.01;40.67;101632.66;2064233;28;20038;-68
2023/05/28 01:14:16;;;;;;;2.42;0.88;;;;;;;12.97;40.48;101626.97;2056102;28;20047;-68
2023/05/28 01:15:19;;;;;;;3.28;1.30;;;;;;;12.96;40.68;101622.66;2064668;28;20038;-70
2023/05/28 01:16:23;;;;;;;3.63;1.00;;;;;;;12.95;40.85;101628.31;2061292;28;20031;-69
2023/05/28 01:17:26;;;;;;;3.15;1.13;;;;;;;12.91;40.92;101627.25;2060155;28;20034;-69
2023/05/28 01:18:27;;;;;;;6.95;1.40;;;;;;;12.91;40.97;101621.84;2056596;28;20034;-68
2023/05/28 01:19:31;;;;;;;5.93;1.73;;;;;;;12.94;40.77;101624.00;2062126;28;20097;-68
2023/05/28 01:20:33;;;;;;;5.07;0.98;;;;;;;12.95;40.77;101622.91;2064613;28;20026;-68
2023/05/28 01:21:41;;;;;;;1.98;1.00;;;;;;;12.97;40.76;101624.28;2064998;28;20090;-68
2023/05/28 01:22:53;;;;;;;3.30;1.05;;;;;;;12.98;41.12;101623.19;2060636;28;20036;-68
2023/05/28 01:23:59;;;;;;;7.63;1.20;;;;;;;12.98;40.79;101622.38;2054396;28;20040;-68
2023/05/28 01:25:01;;;;;;;3.10;1.00;;;;;;;12.99;40.55;101622.13;2049130;28;20114;-67
2023/05/28 01:26:07;;;;;;;2.53;1.23;;;;;;;13.02;40.64;101625.34;2056845;28;20863;-68
2023/05/28 01:27:13;;;;;;;2.83;1.25;;;;;;;13.01;40.64;101627.25;2057946;28;20054;-67
2023/05/28 01:28:17;;;;;;;2.40;1.30;;;;;;;13.01;40.74;101621.03;2057793;28;20089;-68
2023/05/28 01:29:19;;;;;;;3.88;1.10;;;;;;;13.02;40.73;101625.34;2072621;28;20034;-67
2023/05/28 01:30:21;;;;;;;2.53;1.00;;;;;;;12.96;40.68;101606.47;2072726;28;20087;-68
2023/05/28 01:31:23;;;;;;;4.13;1.10;;;;;;;13.05;40.81;101616.72;2057093;28;20015;-67
2023/05/28 01:32:25;;;;;;;7.10;1.30;;;;;;;13.05;40.61;101617.56;2066160;28;20118;-68
2023/05/28 01:33:30;;;;;;;6.85;1.10;;;;;;;13.02;40.82;101618.09;2065810;28;20842;-67
2023/05/28 01:34:35;;;;;;;8.10;1.70;;;;;;;12.97;40.64;101615.38;2072814;28;20793;-68
2023/05/28 01:35:37;;;;;;;4.55;1.27;;;;;;;12.96;40.87;101614.56;2057432;28;20082;-68
2023/05/28 01:36:56;;;;;;;14.52;1.30;;;;;;;12.92;41.01;101609.94;2059784;28;20039;-68
2023/05/28 01:38:00;;;;;;;3.78;1.20;;;;;;;12.96;41.09;101611.88;2065688;28;20158;-68
2023/05/28 01:39:02;;;;;;;12.30;1.08;;;;;;;13.01;40.97;101619.16;2057634;28;20040;-68
2023/05/28 01:40:09;;;;;;;7.38;1.42;;;;;;;13.01;41.24;101616.44;2049662;28;20153;-68
2023/05/28 01:41:12;;;;;;;3.03;1.02;;;;;;;13.02;40.86;101615.38;2069573;28;20038;-68
2023/05/28 01:42:17;;;;;;;9.20;1.38;;;;;;;13.02;41.04;101619.94;2076813;28;20857;-69
2023/05/28 01:43:19;;;;;;;1.42;1.00;;;;;;;13.04;41.12;101605.09;2062118;28;20121;-68
2023/05/28 01:44:22;;;;;;;2.83;1.00;;;;;;;13.06;41.04;101621.84;2058036;28;20059;-68
2023/05/28 01:45:25;;;;;;;4.00;1.08;;;;;;;13.06;40.96;101608.34;2057555;28;20035;-68
2023/05/28 01:46:27;;;;;;;13.15;1.75;;;;;;;13.06;40.98;101615.66;2066450;28;20094;-69
2023/05/28 01:47:30;;;;;;;3.78;1.52;;;;;;;13.06;41.03;101612.97;2062648;28;20086;-68
2023/05/28 01:48:34;;;;;;;4.95;1.05;;;;;;;13.05;40.87;101606.75;2052941;28;20079;-69
2023/05/28 01:49:38;;;;;;;4.40;1.17;;;;;;;13.09;41.27;101609.72;2054829;28;20916;-68
2023/05/28 01:50:44;;;;;;;3.55;1.20;;;;;;;13.08;41.43;101602.69;2047258;28;20039;-68
2023/05/28 01:51:45;;;;;;;5.88;1.05;;;;;;;13.11;41.07;101604.84;2056930;28;20880;-68
2023/05/28 01:52:47;;;;;;;6.10;1.20;;;;;;;13.13;41.15;101602.69;2058329;28;20038;-68
2023/05/28 01:53:49;;;;;;;3.28;1.00;;;;;;;13.16;41.01;101612.94;2065503;28;20149;-68
2023/05/28 01:54:52;;;;;;;3.97;1.15;;;;;;;13.19;41.29;101617.81;2057943;28;20024;-67
2023/05/28 01:55:57;;;;;;;3.80;1.20;;;;;;;13.19;40.93;101605.13;2050379;28;20036;-67
2023/05/28 01:57:01;;;;;;;3.17;1.23;;;;;;;13.19;40.86;101602.41;2050543;28;20039;-68
2023/05/28 01:58:05;;;;;;;1.80;1.02;;;;;;;13.19;41.18;101596.22;2066245;28;20853;-68
2023/05/28 01:59:07;;;;;;;6.50;1.10;;;;;;;13.12;41.15;101599.19;2068565;28;20026;-68
2023/05/28 02:00:15;;;;;;;3.53;1.00;;;;;;;13.12;41.15;101595.69;2066202;28;20128;-68
2023/05/28 02:01:24;;;;;;;3.97;1.10;;;;;;;13.13;41.20;101600.78;2073966;28;20052;-68
2023/05/28 02:02:26;;;;;;;3.05;1.10;;;;;;;13.14;41.37;101596.19;2065743;28;20034;-68
2023/05/28 02:03:28;;;;;;;3.47;1.30;;;;;;;13.10;41.50;101593.22;2057972;28;20089;-68
2023/05/28 02:04:30;;;;;;;5.32;1.40;;;;;;;13.11;41.41;101594.03;2049621;28;20032;-68
2023/05/28 02:05:37;;;;;;;3.85;1.20;;;;;;;13.11;41.50;101589.44;2058238;28;20079;-68
2023/05/28 02:06:40;;;;;;;3.33;1.05;;;;;;;13.09;41.36;101580.81;2065721;28;20031;-68
2023/05/28 02:07:45;;;;;;;2.05;1.15;;;;;;;13.14;41.34;101583.50;2065732;28;20026;-68
2023/05/28 02:08:46;;;;;;;3.95;1.10;;;;;;;13.16;41.16;101585.94;2065650;28;20074;-68
2023/05/28 02:09:48;;;;;;;2.63;1.10;;;;;;;13.19;41.39;101588.09;2049885;28;20027;-68
2023/05/28 02:10:53;;;;;;;2.85;1.15;;;;;;;13.15;41.35;101579.75;2055502;28;20850;-68
2023/05/28 02:11:59;;;;;;;4.88;1.20;;;;;;;13.12;41.66;101585.69;2073860;28;20764;-68
2023/05/28 02:13:05;;;;;;;2.75;1.10;;;;;;;13.15;41.67;101584.34;2073833;28;20156;-68
2023/05/28 02:14:09;;;;;;;3.03;1.15;;;;;;;13.16;41.54;101581.34;2065631;28;20127;-69
2023/05/28 02:15:11;;;;;;;6.00;1.35;;;;;;;13.18;41.61;101576.50;2070899;28;20026;-68
2023/05/28 02:16:17;;;;;;;6.63;1.20;;;;;;;13.11;41.58;101572.44;2057575;28;20142;-69
2023/05/28 02:17:21;;;;;;;2.45;1.05;;;;;;;13.14;41.72;101577.28;2059626;28;20091;-68
2023/05/28 02:18:23;;;;;;;3.25;1.20;;;;;;;13.15;41.89;101585.16;2057378;28;20184;-69
2023/05/28 02:19:26;;;;;;;2.42;1.20;;;;;;;13.15;41.76;101579.75;2058021;28;20882;-68
2023/05/28 02:20:27;;;;;;;4.40;1.10;;;;;;;13.21;41.80;101577.84;2070693;28;20025;-69
2023/05/28 02:21:29;;;;;;;4.43;1.10;;;;;;;13.23;41.64;101576.47;2068449;28;20066;-68
2023/05/28 02:22:33;;;;;;;3.13;1.30;;;;;;;13.22;41.64;101577.56;2063638;28;20109;-69
2023/05/28 02:23:35;;;;;;;1.50;1.00;;;;;;;13.16;41.58;101580.53;2065823;28;20049;-69
2023/05/28 02:24:37;;;;;;;4.25;1.20;;;;;;;13.10;41.75;101576.22;2073752;28;20026;-68
2023/05/28 02:25:41;;;;;;;7.30;1.10;;;;;;;13.10;42.03;101584.31;2065160;28;20074;-69
2023/05/28 02:26:42;;;;;;;5.03;1.20;;;;;;;13.11;41.71;101573.25;2062378;28;20023;-69
2023/05/28 02:27:44;;;;;;;4.65;1.05;;;;;;;13.20;41.74;101587.81;2069415;28;20023;-69
2023/05/28 02:28:46;;;;;;;4.43;1.00;;;;;;;13.21;41.83;101572.47;2074184;28;20073;-68
2023/05/28 02:29:49;;;;;;;1.75;0.95;;;;;;;13.25;41.63;101580.84;2062749;28;20114;-68
2023/05/28 02:30:54;;;;;;;3.72;0.90;;;;;;;13.29;41.88;101576.53;2061461;28;20118;-68
2023/05/28 02:31:55;;;;;;;6.35;1.10;;;;;;;13.28;41.53;101572.22;2068628;28;20034;-68
2023/05/28 02:33:00;;;;;;;3.72;1.13;;;;;;;13.30;41.67;101576.22;2057900;28;20182;-68
2023/05/28 02:34:02;;;;;;;3.40;1.20;;;;;;;13.37;41.72;101575.97;2057940;28;20839;-68
2023/05/28 02:35:09;;;;;;;3.90;1.10;;;;;;;13.32;41.69;101574.09;2065757;28;20842;-68
2023/05/28 02:36:14;;;;;;;4.70;0.95;;;;;;;13.31;41.69;101583.28;2062881;28;20057;-68
2023/05/28 02:37:15;;;;;;;3.80;1.40;;;;;;;13.32;41.75;101567.88;2057406;28;20860;-68
2023/05/28 02:38:20;;;;;;;4.25;1.02;;;;;;;13.36;41.65;101567.03;2056425;28;20066;-68
2023/05/28 02:39:24;;;;;;;3.30;1.20;;;;;;;13.33;41.61;101575.69;2057120;28;20137;-68
2023/05/28 02:40:26;;;;;;;3.05;1.20;;;;;;;13.35;41.48;101575.44;2049851;28;20032;-68
2023/05/28 02:41:28;;;;;;;7.63;1.23;;;;;;;13.31;41.63;101563.56;2057596;28;20870;-68
2023/05/28 02:42:32;;;;;;;3.38;1.08;;;;;;;13.35;41.58;101572.72;2054698;28;20851;-68
2023/05/28 02:43:35;;;;;;;3.20;1.27;;;;;;;13.34;41.56;101574.63;2051441;28;20028;-68
2023/05/28 02:44:39;;;;;;;2.58;1.10;;;;;;;13.34;41.60;101565.72;2049783;28;20054;-68
2023/05/28 02:45:42;;;;;;;5.32;1.40;;;;;;;13.36;41.58;101575.16;2057862;28;20047;-68
2023/05/28 02:46:48;;;;;;;5.72;1.10;;;;;;;13.35;41.65;101572.72;2067588;28;20089;-68
2023/05/28 02:47:51;;;;;;;2.45;1.20;;;;;;;13.36;41.58;101574.34;2059256;28;20047;-69
2023/05/28 02:48:56;;;;;;;3.30;1.08;;;;;;;13.33;41.54;101572.19;2049521;28;20043;-68
2023/05/28 02:50:01;;;;;;;3.58;1.10;;;;;;;13.31;41.84;101574.38;2050565;28;20036;-68
2023/05/28 02:51:11;;;;;;;3.13;0.98;;;;;;;13.27;41.84;101575.97;2058539;28;20767;-68
2023/05/28 02:52:25;;;;;;;3.80;1.20;;;;;;;13.25;41.71;101567.34;2057607;28;20156;-68
2023/05/28 02:53:31;;;;;;;4.35;0.93;;;;;;;13.26;41.96;101575.16;2065334;28;21239;-68
2023/05/28 02:54:35;;;;;;;5.10;1.17;;;;;;;13.26;41.76;101577.06;2065431;28;20113;-68
2023/05/28 02:55:37;;;;;;;2.55;1.33;;;;;;;13.25;41.91;101578.16;2065297;28;20047;-68
2023/05/28 02:56:40;;;;;;;3.65;1.02;;;;;;;13.23;41.94;101576.47;2057462;28;20038;-67
2023/05/28 02:57:41;;;;;;;2.10;1.33;;;;;;;13.21;41.86;101567.06;2065538;28;20152;-68
2023/05/28 02:58:45;;;;;;;3.90;1.10;;;;;;;13.23;42.06;101562.16;2081510;28;20883;-68
2023/05/28 02:59:47;;;;;;;4.70;1.30;;;;;;;13.22;42.03;101561.38;2062429;28;20034;-68
2023/05/28 03:00:49;;;;;;;1.88;1.00;;;;;;;13.25;42.04;101570.84;2070656;28;20042;-68
2023/05/28 03:01:51;;;;;;;3.22;1.10;;;;;;;13.27;41.93;101570.56;2070432;28;20049;-68
2023/05/28 03:02:53;;;;;;;2.28;1.17;;;;;;;13.25;42.32;101567.34;2049521;28;20979;-68
2023/05/28 03:03:55;;;;;;;7.03;1.00;;;;;;;13.28;42.27;101566.81;2057346;28;20866;-68
2023/05/28 03:05:01;;;;;;;2.72;1.10;;;;;;;13.20;41.75;101571.63;2053460;28;20893;-67
2023/05/28 03:06:07;;;;;;;2.88;1.20;;;;;;;13.20;41.96;101566.22;2046473;28;20795;-67
2023/05/28 03:07:16;;;;;;;2.30;1.15;;;;;;;13.21;42.34;101565.16;2058531;28;20036;-68
2023/05/28 03:08:17;;;;;;;2.03;0.80;;;;;;;13.22;42.13;101566.78;2056718;28;20039;-68
2023/05/28 03:09:19;;;;;;;3.85;2.05;;;;;;;13.26;42.26;101563.56;2065242;28;20161;-68
2023/05/28 03:10:22;;;;;;;5.13;1.20;;;;;;;13.26;42.27;101558.16;2064871;28;20027;-68
2023/05/28 03:11:27;;;;;;;4.43;1.20;;;;;;;13.22;41.88;101555.16;2057087;28;20057;-68
2023/05/28 03:12:29;;;;;;;1.77;0.85;;;;;;;13.25;42.27;101561.94;2049392;28;20035;-68
2023/05/28 03:13:33;;;;;;;3.05;1.05;;;;;;;13.29;42.29;101565.72;2065913;28;20739;-68
2023/05/28 03:14:35;;;;;;;3.95;0.95;;;;;;;13.30;41.88;101554.63;2068427;28;20041;-68
2023/05/28 03:15:36;;;;;;;1.33;1.00;;;;;;;13.29;42.27;101561.13;2061863;28;20129;-68
2023/05/28 03:16:38;;;;;;;4.03;1.27;;;;;;;13.33;42.40;101564.88;2057186;28;20794;-68
2023/05/28 03:17:46;;;;;;;4.57;1.30;;;;;;;13.33;41.95;101561.38;2042345;28;20028;-68
2023/05/28 03:18:49;;;;;;;3.60;1.25;;;;;;;13.38;41.93;101561.38;2041575;28;20225;-69
2023/05/28 03:19:50;;;;;;;4.50;0.88;;;;;;;13.42;42.03;101559.75;2054372;28;20039;-68
2023/05/28 03:20:56;;;;;;;3.50;1.02;;;;;;;13.42;41.94;101562.44;2057252;28;20044;-68
2023/05/28 03:21:58;;;;;;;3.45;0.85;;;;;;;13.41;41.86;101564.34;2049195;28;20977;-69
2023/05/28 03:23:07;;;;;;;4.43;1.15;;;;;;;13.38;41.85;101554.09;2059888;28;20031;-67
2023/05/28 03:24:23;;;;;;;1.77;0.82;;;;;;;13.46;42.19;101560.81;2072454;28;21048;-68
2023/05/28 03:25:28;;;;;;;2.83;1.00;;;;;;;13.51;42.24;101560.81;2073134;28;20976;-68
2023/05/28 03:26:31;;;;;;;1.77;0.85;;;;;;;13.53;42.00;101555.97;2074003;28;20039;-68
2023/05/28 03:27:33;;;;;;;3.08;0.90;;;;;;;13.52;41.54;101559.72;2068816;28;20034;-68
2023/05/28 03:28:35;;;;;;;1.42;0.80;;;;;;;13.54;41.43;101559.47;2064990;28;20137;-68
2023/05/28 03:30:09;;;;;;;3.10;1.10;;;;;;;13.56;42.19;101558.13;2047320;28;20935;-68
2023/05/28 03:31:21;;;;;;;3.63;0.93;;;;;;;13.55;42.05;101559.19;2064490;28;20035;-67
2023/05/28 03:32:22;;;;;;;5.88;1.00;;;;;;;13.56;41.85;101552.72;2056733;28;20038;-67
2023/05/28 03:33:24;;;;;;;1.52;0.93;;;;;;;13.59;42.12;101554.88;2053719;28;20044;-67
2023/05/28 03:34:26;;;;;;;3.25;1.20;;;;;;;13.60;41.82;101556.47;2064826;28;20034;-67
2023/05/28 03:35:29;;;;;;;3.55;0.95;;;;;;;13.68;41.89;101560.50;2073598;28;20036;-67
2023/05/28 03:36:31;;;;;;;2.63;1.38;;;;;;;13.70;41.66;101552.13;2078476;28;20099;-67
2023/05/28 03:37:35;;;;;;;2.58;1.15;;;;;;;13.70;41.72;101550.22;2072993;28;20884;-67
2023/05/28 03:38:37;;;;;;;4.20;1.05;;;;;;;13.72;41.53;101556.19;2064772;28;20133;-67
2023/05/28 03:39:38;;;;;;;5.03;0.90;;;;;;;13.75;41.43;101554.81;2065180;28;20173;-67
2023/05/28 03:40:40;;;;;;;2.63;1.10;;;;;;;13.77;41.48;101553.44;2056965;28;20034;-67
2023/05/28 03:41:44;;;;;;;2.67;0.90;;;;;;;13.80;41.69;101554.78;2057027;28;20038;-67
2023/05/28 03:42:46;;;;;;;5.10;1.10;;;;;;;13.86;41.62;101556.38;2055811;28;20846;-67
2023/05/28 03:43:48;;;;;;;2.25;0.93;;;;;;;13.87;41.67;101564.25;2057103;28;20039;-67
2023/05/28 03:44:53;;;;;;;2.28;1.05;;;;;;;13.94;41.39;101549.63;2054492;28;20038;-67
2023/05/28 03:45:55;;;;;;;3.90;1.10;;;;;;;14.01;41.42;101548.22;2058200;28;20023;-67
2023/05/28 03:46:56;;;;;;;3.17;1.00;;;;;;;14.04;41.39;101544.16;2056973;28;20043;-67
2023/05/28 03:47:59;;;;;;;4.13;0.93;;;;;;;14.03;41.27;101548.75;2049539;28;20791;-67
2023/05/28 03:49:03;;;;;;;4.30;1.25;;;;;;;14.06;41.25;101555.50;2065096;28;20086;-67
2023/05/28 03:50:07;;;;;;;3.03;1.10;;;;;;;14.10;40.99;101549.25;2056752;28;20038;-67
2023/05/28 03:51:09;;;;;;;5.43;1.40;;;;;;;14.16;40.87;101547.34;2041907;28;20052;-67
2023/05/28 03:52:11;;;;;;;2.85;1.05;;;;;;;14.20;41.10;101545.69;2065400;28;20019;-67
2023/05/28 03:53:26;;;;;;;3.05;1.30;;;;;;;14.25;40.98;101553.81;2066492;28;20039;-67
2023/05/28 03:54:29;;;;;;;3.67;1.13;;;;;;;14.34;40.90;101546.72;2064763;28;20078;-68
2023/05/28 03:55:31;;;;;;;3.17;1.27;;;;;;;14.41;41.08;101546.41;2075249;28;20873;-66
2023/05/28 03:56:34;;;;;;;4.30;1.25;;;;;;;14.48;41.02;101541.47;2065234;28;20929;-67
2023/05/28 03:57:36;;;;;;;1.73;0.95;;;;;;;14.62;40.96;101543.59;2065493;28;20047;-67
2023/05/28 03:58:38;;;;;;;1.42;0.90;;;;;;;14.76;40.64;101541.88;2065001;28;20138;-67
2023/05/28 03:59:42;;;;;;;2.30;1.00;;;;;;;14.85;40.17;101537.47;2056622;28;20039;-67
2023/05/28 04:00:44;;;;;;;4.50;1.17;;;;;;;14.88;39.83;101538.78;2052618;28;20127;-66
2023/05/28 04:01:46;;;;;;;3.03;1.20;;;;;;;14.94;39.89;101535.78;2049211;28;20043;-67
2023/05/28 04:02:48;;;;;;;2.42;1.33;;;;;;;15.02;40.21;101540.56;2049236;28;20126;-67
2023/05/28 04:03:51;;;;;;;3.55;1.00;;;;;;;15.11;40.04;101539.97;2062741;28;20046;-66
2023/05/28 04:04:53;;;;;;;4.32;1.10;;;;;;;15.21;40.06;101534.44;2064609;28;20145;-67
2023/05/28 04:05:56;;;;;;;3.35;1.17;;;;;;;15.27;40.29;101544.94;2049692;28;20134;-67
2023/05/28 04:07:00;;;;;;;2.88;1.00;;;;;;;15.33;39.96;101539.47;2065347;28;20054;-68
2023/05/28 04:08:02;;;;;;;3.10;1.02;;;;;;;15.37;39.36;101541.31;2073151;28;20042;-67
2023/05/28 04:09:04;;;;;;;7.47;1.23;;;;;;;15.38;38.66;101545.63;2057004;28;20146;-67
2023/05/28 04:10:08;;;;;;;3.22;1.20;;;;;;;15.32;39.36;101543.25;2064649;28;20046;-67
2023/05/28 04:11:10;;;;;;;1.35;0.95;;;;;;;15.32;39.78;101530.53;2072166;28;20265;-67
2023/05/28 04:12:12;;;;;;;7.75;1.17;;;;;;;15.46;39.68;101533.38;2068328;28;20181;-67
2023/05/28 04:13:13;;;;;;;1.98;1.20;;;;;;;15.60;39.06;101547.03;2080973;28;20042;-68
2023/05/28 04:14:18;;;;;;;3.03;1.10;;;;;;;15.65;38.94;101541.56;2065008;28;20034;-67
2023/05/28 04:15:20;;;;;;;6.55;1.20;;;;;;;15.68;38.38;101546.44;2064492;28;20027;-67
2023/05/28 04:16:23;;;;;;;3.72;1.13;;;;;;;15.65;39.07;101547.00;2056836;28;20039;-67
2023/05/28 04:17:24;;;;;;;2.38;1.15;;;;;;;15.66;39.13;101537.75;2057030;28;20110;-68
2023/05/28 04:18:26;;;;;;;4.05;1.13;;;;;;;15.78;39.62;101548.22;2056747;28;20035;-68
2023/05/28 04:19:31;;;;;;;3.63;1.20;;;;;;;15.89;39.84;101547.00;2041119;28;20072;-69
2023/05/28 04:20:35;;;;;;;2.08;1.33;;;;;;;15.87;38.47;101544.59;2057768;28;20903;-68
2023/05/28 04:21:37;;;;;;;2.13;1.08;;;;;;;15.90;38.35;101546.72;2064951;28;20031;-68
2023/05/28 04:22:42;;;;;;;5.68;1.10;;;;;;;16.02;38.53;101556.34;2064458;28;20173;-68
2023/05/28 04:23:44;;;;;;;2.25;1.02;;;;;;;16.15;38.73;101540.16;2073674;28;20651;-68
2023/05/28 04:24:46;;;;;;;2.38;1.05;;;;;;;16.18;37.67;101539.59;2072767;28;20046;-69
2023/05/28 04:25:53;;;;;;;1.75;0.95;;;;;;;16.19;38.07;101540.38;2057229;28;20070;-68
2023/05/28 04:26:56;;;;;;;3.25;1.35;;;;;;;16.32;38.31;101550.50;2063169;28;20027;-68
2023/05/28 04:28:00;;;;;;;3.65;1.10;;;;;;;16.44;37.97;101541.94;2067579;28;20048;-68
2023/05/28 04:29:02;;;;;;;3.40;1.38;;;;;;;16.51;37.86;101552.41;2060964;28;20071;-68
2023/05/28 04:30:08;;;;;;;2.88;1.13;;;;;;;16.55;37.84;101548.00;2048624;28;20063;-68
2023/05/28 04:31:11;;;;;;;2.10;1.10;;;;;;;16.65;37.89;101547.88;2050657;28;20186;-68
2023/05/28 04:32:12;;;;;;;1.45;1.10;;;;;;;16.76;38.02;101549.34;2064734;28;20043;-68
2023/05/28 04:33:19;;;;;;;1.77;1.00;;;;;;;16.81;38.05;101543.84;2064698;28;20874;-68
2023/05/28 04:34:20;;;;;;;2.50;1.08;;;;;;;16.88;37.17;101541.53;2065441;28;20039;-68
2023/05/28 04:35:22;;;;;;;3.13;1.15;;;;;;;16.96;37.57;101531.09;2064466;28;20077;-68
2023/05/28 04:36:28;;;;;;;3.67;1.00;;;;;;;17.03;37.39;101537.78;2048638;28;20063;-66
2023/05/28 04:37:33;;;;;;;1.83;1.00;;;;;;;17.12;37.01;101535.19;2056317;28;20041;-67
2023/05/28 04:38:35;;;;;;;2.08;1.13;;;;;;;17.20;36.84;101531.75;2063211;28;20078;-67
2023/05/28 04:39:37;;;;;;;8.40;1.20;;;;;;;17.25;36.50;101531.69;2072260;28;20804;-67
2023/05/28 04:40:39;;;;;;;2.35;1.10;;;;;;;17.25;36.73;101526.25;2056398;28;20747;-67
2023/05/28 04:41:43;;;;;;;3.63;1.92;;;;;;;17.26;36.98;101532.47;2065001;28;20026;-67
2023/05/28 04:42:47;;;;;;;2.97;1.17;;;;;;;17.24;36.65;101527.34;2072748;28;20046;-66
2023/05/28 04:43:51;;;;;;;3.95;1.30;;;;;;;17.19;35.99;101526.66;2064579;28;20157;-67
2023/05/28 04:44:53;;;;;;;4.20;1.20;;;;;;;17.09;36.17;101525.72;2064982;28;20739;-66
2023/05/28 04:45:59;;;;;;;1.55;1.00;;;;;;;16.99;35.95;101530.50;2056560;28;20032;-66
2023/05/28 04:47:04;;;;;;;3.67;1.20;;;;;;;16.88;36.67;101529.88;2058028;28;20079;-66
2023/05/28 04:48:07;;;;;;;2.15;1.33;;;;;;;16.91;37.13;101529.28;2056652;28;20031;-66
2023/05/28 04:49:10;;;;;;;3.75;0.93;;;;;;;16.94;36.93;101530.59;2056909;28;20047;-66
2023/05/28 04:50:12;;;;;;;4.78;1.52;;;;;;;16.89;36.49;101532.28;2064682;28;20073;-67
2023/05/28 04:51:18;;;;;;;3.78;1.00;;;;;;;16.76;36.82;101529.53;2056672;28;20027;-67
2023/05/28 04:52:19;;;;;;;5.32;1.30;;;;;;;16.82;37.10;101536.50;2049543;28;20766;-66
2023/05/28 04:53:21;;;;;;;3.53;1.20;;;;;;;16.89;36.91;101531.47;2048554;28;21263;-66
2023/05/28 04:54:26;;;;;;;4.18;1.48;;;;;;;16.91;36.98;101532.81;2048792;28;20043;-67
2023/05/28 04:55:28;;;;;;;2.75;1.33;;;;;;;17.00;37.03;101526.69;2057114;28;20027;-67